Overview Statistics Trail Chart Weather Telemetry Raw packets
 

This is the latest recevied telemetry packets stored in our database for station/object OE3TEC-10. If no packets are shown the sender has not sent any telemetry packets the latest 10 day(s).

Telemetry packets is used to share measurements like repeteater parameters, battery voltage, radiation readings (or any other measurements).

<< 1 2 3 4 >>
Time Press* Temp.in* Hum* QNH* Temp.out*
1788585033 994.4 hPa 28.5 C deg 26.7 % 1019.7 hPa 0 C deg
1788581432 993.4 hPa 29.5 C deg 26.5 % 1018.5 hPa 0 C deg
1788565689 988.7 hPa 29.1 C deg 26 % 1013.7 hPa 0 C deg
1788559004 988.2 hPa 29.3 C deg 27.2 % 1013.3 hPa 0 C deg
1788556234 988.4 hPa 30.4 C deg 26.7 % 1013.4 hPa 0 C deg
1788552648 988.4 hPa 32.2 C deg 25.8 % 1013.2 hPa 0 C deg
1788550798 988.4 hPa 33.3 C deg 25.4 % 1013.1 hPa 0 C deg
1788539885 988 hPa 43.6 C deg 19.1 % 1012 hPa 0 C deg
1788528182 990.5 hPa 41.9 C deg 20.6 % 1014.6 hPa 0 C deg
1788517412 993.3 hPa 37.8 C deg 24.4 % 1017.8 hPa 0 C deg
1788515574 993.9 hPa 37.2 C deg 24.8 % 1018.4 hPa 0 C deg
1788513750 994.3 hPa 36.5 C deg 24.9 % 1018.9 hPa 0 C deg
1788487029 994.6 hPa 28.1 C deg 28.4 % 1020 hPa 0 C deg
1788468616 996 hPa 31.1 C deg 25.6 % 1021.1 hPa 0 C deg
1788464991 995.6 hPa 32 C deg 24.7 % 1020.6 hPa 0 C deg
1788463178 995.3 hPa 32.5 C deg 24.4 % 1020.2 hPa 0 C deg
1788459546 994.8 hPa 33.4 C deg 24 % 1019.7 hPa 0 C deg
1788446547 994 hPa 37.5 C deg 21.8 % 1018.5 hPa 0 C deg
1788441981 994.2 hPa 36.8 C deg 22.7 % 1018.8 hPa 0 C deg
1788440170 994.3 hPa 36.8 C deg 22.7 % 1018.9 hPa 0 C deg
1788438224 994.8 hPa 37 C deg 23 % 1019.4 hPa 0 C deg
1788424403 996.5 hPa 31.8 C deg 26 % 1021.6 hPa 0 C deg
1788419501 996.3 hPa 27.4 C deg 28.5 % 1021.7 hPa 0 C deg
1788416305 996.3 hPa 25.2 C deg 28.7 % 1022 hPa 0 C deg
1788415171 996.4 hPa 25 C deg 28.8 % 1022 hPa 0 C deg
*Used Equation Coefficients:
Press: 0, 1, 0
Temp.in: 0, 1, 0
Hum: 0, 1, 0
QNH: 0, 1, 0
Temp.out: 0, 1, 0

  • The parameter names for the analog channels will be Value1, Value2, Value3 (up to Value5) if station has not sent a PARAM-packet that specifies the parameter names for each analog channel.
  • Each analog value is a decimal number between 000 and 255 (according to APRS specifications). The receiver use the telemetry equation coefficientsto to restore the original sensor values. If no EQNS-packet with equation coefficients is sent we will show the values as is (this corresponds to the equation coefficients a=0, b=1 and c=0).
    The sent equation coefficients is used in the equation: a * value2 + b * value + c.
  • The units for the analog values will not be shown if station has not sent a UNIT-packet specifying what unit's to use.
  • The parameter names for the digital bits will be Bit1, Bit2, Bit3 (up to Bit8) if station has not sent a PARAM-packet that specifies the parameter names for each digital bit.
  • All bit labels will be named "On" if station has not sent a UNIT-packet that specifies the label of each bit.
  • A bit is considered to be On when the bit is 1 if station has not sent a BITS-packet that specifies another "Bit sense" (a BITS-packet specify the state of the bits that match the BIT labels)